Portada
METAR-TAF:

METAR-TAF

Aeroports :

Hèlsinki, Finlàndia

Aeroport d'Hèlsinki-Vantaa

latitud: 60-19N, longitud: 024-58E, altitud: 51 m

Observació

L'informe es va fer fa 13 minuts, a les 08:20 UTC
Vent 4 kt del Nord-Oest
Temperatura -10°C
Humitat 92%
Pressió 1023 hPa
Visibilitat 10 km o més
Escasses núvols a una alçada de 1500 ft

METAR: EFHK 180820Z 32004KT 9999 FEW015 M10/M11 Q1023 NOSIG

Hora: 10:33 (08:33 UTC)

Pronòstic

L'informe es va fer fa 2 hores i 55 minuts, a les 05:38 UTC
Pronòstic vàlid del 18 a les 06 UTC al 19 a les 06 UTC
Vent 4 kt del Nord-Oest
Visibilitat: 9000 m
Escasses núvols a una alçada de 900 ft
Cel ennuvolat a una alçada de 4000 ft
Temporalment
l' 18 a les 06 UTC al 18 a les 09 UTC
Visibilitat: 6000 m
Cel ennuvolat a una alçada de 900 ft
neu

TAF: EFHK 180538Z 1806/1906 32004KT 9000 FEW009 BKN040 TEMPO 1806/1809 6000 -SN BKN009

Observacions i pronòstics meteorològics de més de 4000 aeroports (METAR i TAF).

Les estacions disponibles són els punts grocs i vermells al mapa.

Posi el ratolí al punt desitjat per veure el nom de l'estació.

Feu clic per veure les observacions i els pronòstics meteorològics.

Per canviar el mapa: feu clic els botons verds amb una creu de color negre per apropar; al botó verd amb un guió per allunyar la imatge; o en les fletxes verdes per a mapes adjacents.


METAR-TAF: